createdAt,value
2019-03-16T00:00:34.491Z,97754.08
2019-03-16T00:03:01.914Z,97754.13
2019-03-16T00:05:29.415Z,97756.62
2019-03-16T00:07:56.894Z,97756.45
2019-03-16T00:10:24.300Z,97749.28
2019-03-16T00:12:51.807Z,97758.34
2019-03-16T00:15:19.211Z,97757.64
2019-03-16T00:17:46.684Z,97757.27
2019-03-16T00:20:14.153Z,97755.24
2019-03-16T00:22:41.557Z,97753.66
2019-03-16T00:25:09.049Z,97760.55
2019-03-16T00:27:36.509Z,97758.23
2019-03-16T00:30:04.676Z,97759.49
2019-03-16T00:32:32.095Z,97756.82
2019-03-16T00:34:59.503Z,97753.83
2019-03-16T00:37:26.888Z,97755.98
2019-03-16T00:39:53.906Z,97749.61
2019-03-16T00:42:21.351Z,97748.58
2019-03-16T00:44:48.766Z,97747.83
2019-03-16T00:47:16.572Z,97736.38
2019-03-16T00:49:43.981Z,97742.69
2019-03-16T00:52:11.371Z,97748.06
2019-03-16T00:54:38.839Z,97748.66
2019-03-16T00:57:06.263Z,97744.66
2019-03-16T00:59:34.692Z,97742.88
2019-03-16T01:02:02.204Z,97738.61
2019-03-16T01:04:29.640Z,97732.98
2019-03-16T01:06:57.153Z,97723.55
2019-03-16T01:09:24.568Z,97718.33
2019-03-16T01:11:52.064Z,97712.25
2019-03-16T01:14:19.456Z,97713.02
2019-03-16T01:16:46.948Z,97704.97
2019-03-16T01:19:14.344Z,97704.06
2019-03-16T01:21:42.351Z,97703.12
2019-03-16T01:24:10.078Z,97700.79
2019-03-16T01:26:37.530Z,97699.33
2019-03-16T01:29:04.982Z,97696.66
2019-03-16T01:31:32.464Z,97700.95
2019-03-16T01:33:59.850Z,97710.95
2019-03-16T01:36:27.453Z,97705.71
2019-03-16T01:38:54.392Z,97712.12
2019-03-16T01:41:21.855Z,97706.50
2019-03-16T01:43:49.250Z,97696.86
2019-03-16T01:46:16.674Z,97689.68
2019-03-16T01:48:44.128Z,97691.87
2019-03-16T01:51:11.610Z,97677.02
2019-03-16T01:53:40.068Z,97673.90
2019-03-16T01:56:07.811Z,97673.50
2019-03-16T01:58:35.202Z,97669.74
2019-03-16T02:01:02.662Z,97680.44
2019-03-16T02:03:30.082Z,97683.11
2019-03-16T02:05:57.966Z,97682.70
2019-03-16T02:08:25.557Z,97675.48
2019-03-16T02:10:53.175Z,97673.53
2019-03-16T02:13:20.560Z,97662.02
2019-03-16T02:15:48.411Z,97654.27
2019-03-16T02:18:15.816Z,97656.59
2019-03-16T02:20:43.539Z,97647.67
2019-03-16T02:23:10.930Z,97646.37
2019-03-16T02:25:38.376Z,97649.39
2019-03-16T02:28:05.900Z,97646.84
2019-03-16T02:30:32.899Z,97641.86
2019-03-16T02:33:12.868Z,97641.13
2019-03-16T02:35:27.706Z,97643.36
2019-03-16T02:37:55.218Z,97643.06
2019-03-16T02:40:22.641Z,97641.88
2019-03-16T02:42:50.037Z,97635.56
2019-03-16T02:45:17.439Z,97634.88
2019-03-16T02:47:44.848Z,97635.95
2019-03-16T02:50:12.309Z,97643.97
2019-03-16T02:52:39.729Z,97645.30
2019-03-16T02:55:07.134Z,97648.83
2019-03-16T02:57:34.611Z,97646.13
2019-03-16T03:00:02.061Z,97640.95
2019-03-16T03:02:29.003Z,97637.51
2019-03-16T03:04:56.447Z,97639.30
2019-03-16T03:07:23.863Z,97641.89
2019-03-16T03:09:51.272Z,97635.22
2019-03-16T03:12:18.740Z,97643.27
2019-03-16T03:14:46.136Z,97652.62
2019-03-16T03:17:13.536Z,97646.30
2019-03-16T03:19:40.945Z,97643.19
2019-03-16T03:22:08.401Z,97646.94
2019-03-16T03:24:36.005Z,97645.02
2019-03-16T03:27:03.422Z,97641.50
2019-03-16T03:29:30.903Z,97642.81
2019-03-16T03:31:58.321Z,97636.91
2019-03-16T03:34:25.820Z,97639.42
2019-03-16T03:36:53.259Z,97642.48
2019-03-16T03:39:20.754Z,97639.09
2019-03-16T03:41:48.901Z,97640.16
2019-03-16T03:44:16.397Z,97639.34
2019-03-16T03:46:43.816Z,97641.75
2019-03-16T03:49:11.211Z,97634.55
2019-03-16T03:51:38.608Z,97636.03
2019-03-16T03:54:06.034Z,97629.66
2019-03-16T03:56:33.454Z,97630.79
2019-03-16T03:59:00.877Z,97628.05
2019-03-16T04:01:28.344Z,97636.45
2019-03-16T04:04:13.630Z,97639.30
2019-03-16T04:06:23.167Z,97635.72
2019-03-16T04:08:50.791Z,97647.51
2019-03-16T04:11:18.267Z,97644.91
2019-03-16T04:13:45.734Z,97646.81
2019-03-16T04:16:13.156Z,97644.27
2019-03-16T04:18:40.664Z,97648.13
2019-03-16T04:21:08.047Z,97640.73
2019-03-16T04:23:35.906Z,97639.13
2019-03-16T04:26:03.310Z,97640.19
2019-03-16T04:28:30.785Z,97638.92
2019-03-16T04:30:58.291Z,97641.34
2019-03-16T04:33:25.599Z,97638.25
2019-03-16T04:35:53.023Z,97639.76
2019-03-16T04:38:20.452Z,97640.30
2019-03-16T04:40:47.874Z,97633.14
2019-03-16T04:43:15.404Z,97633.58
2019-03-16T04:45:42.811Z,97633.98
2019-03-16T04:48:10.238Z,97635.16
2019-03-16T04:50:37.639Z,97627.08
2019-03-16T04:53:05.042Z,97625.59
2019-03-16T04:55:32.441Z,97624.84
2019-03-16T04:57:59.859Z,97621.84
2019-03-16T05:00:27.508Z,97619.94
2019-03-16T05:02:54.980Z,97614.91
2019-03-16T05:05:22.402Z,97607.80
2019-03-16T05:07:49.839Z,97616.20
2019-03-16T05:10:17.239Z,97610.47
2019-03-16T05:12:44.738Z,97616.73
2019-03-16T05:15:12.172Z,97614.69
2019-03-16T05:17:39.647Z,97608.90
2019-03-16T05:20:09.754Z,97612.79
2019-03-16T05:22:37.220Z,97611.31
2019-03-16T05:25:04.610Z,97611.69
2019-03-16T05:27:32.006Z,97615.20
2019-03-16T05:29:59.410Z,97621.53
2019-03-16T05:32:26.822Z,97621.11
2019-03-16T05:34:56.723Z,97617.97
2019-03-16T05:37:21.770Z,97618.68
2019-03-16T05:39:49.264Z,97623.50
2019-03-16T05:42:16.709Z,97615.57
2019-03-16T05:44:44.137Z,97622.98
2019-03-16T05:47:11.591Z,97628.28
2019-03-16T05:49:39.003Z,97632.09
2019-03-16T05:52:06.564Z,97629.16
2019-03-16T05:54:33.973Z,97626.08
2019-03-16T05:57:01.425Z,97631.78
2019-03-16T05:59:28.839Z,97626.56
2019-03-16T06:01:56.244Z,97629.06
2019-03-16T06:04:23.651Z,97635.91
2019-03-16T06:06:51.053Z,97627.94
2019-03-16T06:09:18.601Z,97620.08
2019-03-16T06:11:45.987Z,97620.84
2019-03-16T06:14:13.398Z,97619.81
2019-03-16T06:16:40.835Z,97612.57
2019-03-16T06:19:08.516Z,97614.39
2019-03-16T06:21:36.848Z,97614.33
2019-03-16T06:24:04.852Z,97621.33
2019-03-16T06:26:32.260Z,97616.06
2019-03-16T06:28:59.667Z,97618.16
2019-03-16T06:31:28.135Z,97618.66
2019-03-16T06:33:55.618Z,97617.66
2019-03-16T06:36:23.469Z,97613.80
2019-03-16T06:38:50.816Z,97612.80
2019-03-16T06:41:18.203Z,97614.14
2019-03-16T06:43:45.623Z,97603.52
2019-03-16T06:46:13.040Z,97597.36
2019-03-16T06:48:40.481Z,97596.28
2019-03-16T06:51:07.953Z,97591.98
2019-03-16T06:53:35.369Z,97585.27
2019-03-16T06:56:02.815Z,97583.95
2019-03-16T06:58:30.250Z,97582.91
2019-03-16T07:00:57.761Z,97588.41
2019-03-16T07:03:25.218Z,97591.03
2019-03-16T07:05:52.608Z,97589.53
2019-03-16T07:08:20.101Z,97588.59
2019-03-16T07:10:47.492Z,97583.17
2019-03-16T07:13:14.954Z,97589.06
2019-03-16T07:15:42.521Z,97583.98
2019-03-16T07:18:09.935Z,97587.30
2019-03-16T07:20:37.353Z,97585.86
2019-03-16T07:23:04.848Z,97581.16
2019-03-16T07:25:32.352Z,97584.95
2019-03-16T07:27:59.907Z,97577.91
2019-03-16T07:30:27.596Z,97573.84
2019-03-16T07:32:55.067Z,97575.63
2019-03-16T07:35:22.468Z,97571.55
2019-03-16T07:37:49.850Z,97571.13
2019-03-16T07:40:17.283Z,97573.68
2019-03-16T07:42:45.181Z,97572.22
2019-03-16T07:45:12.585Z,97568.04
2019-03-16T07:47:40.088Z,97567.05
2019-03-16T07:50:07.644Z,97569.80
2019-03-16T07:52:35.010Z,97581.85
2019-03-16T07:55:02.527Z,97577.81
2019-03-16T07:57:39.476Z,97574.20
2019-03-16T07:59:58.217Z,97573.34
2019-03-16T08:02:26.156Z,97580.67
2019-03-16T08:04:53.951Z,97574.31
2019-03-16T08:07:21.467Z,97571.14
2019-03-16T08:09:48.951Z,97573.68
2019-03-16T08:12:16.372Z,97568.84
2019-03-16T08:14:43.785Z,97576.40
2019-03-16T08:17:11.201Z,97570.66
2019-03-16T08:19:38.871Z,97564.61
2019-03-16T08:22:06.276Z,97557.19
2019-03-16T08:24:33.873Z,97564.31
2019-03-16T08:27:01.445Z,97566.68
2019-03-16T08:29:29.783Z,97562.78
2019-03-16T08:31:57.212Z,97563.23
2019-03-16T08:34:24.635Z,97560.98
2019-03-16T08:36:52.142Z,97557.30
2019-03-16T08:39:19.201Z,97553.48
2019-03-16T08:41:46.194Z,97552.03
2019-03-16T08:44:13.631Z,97540.78
2019-03-16T08:46:41.105Z,97535.52
2019-03-16T08:49:08.499Z,97542.46
2019-03-16T08:51:37.546Z,97539.80
2019-03-16T08:54:04.951Z,97539.22
2019-03-16T08:56:31.990Z,97532.08
2019-03-16T08:58:59.404Z,97533.88
2019-03-16T09:01:27.194Z,97527.02
2019-03-16T09:03:54.168Z,97518.78
2019-03-16T09:06:21.821Z,97518.16
2019-03-16T09:08:48.969Z,97509.74
2019-03-16T09:11:15.915Z,97509.98
2019-03-16T09:13:42.928Z,97514.16
2019-03-16T09:16:10.076Z,97516.42
2019-03-16T09:18:37.022Z,97512.94
2019-03-16T09:21:04.476Z,97507.88
2019-03-16T09:23:31.944Z,97508.14
2019-03-16T09:25:59.437Z,97509.61
2019-03-16T09:28:26.860Z,97505.34
2019-03-16T09:30:56.426Z,97506.69
2019-03-16T09:33:22.014Z,97504.75
2019-03-16T09:35:49.433Z,97508.25
2019-03-16T09:38:17.962Z,97500.13
2019-03-16T09:40:45.446Z,97499.39
2019-03-16T09:43:13.471Z,97501.27
2019-03-16T09:45:40.877Z,97500.58
2019-03-16T09:48:08.280Z,97491.43
2019-03-16T09:50:35.732Z,97487.09
2019-03-16T09:53:03.268Z,97488.95
2019-03-16T09:55:30.693Z,97487.41
2019-03-16T09:57:58.160Z,97482.83
2019-03-16T10:00:25.557Z,97470.67
2019-03-16T10:02:52.994Z,97470.75
2019-03-16T10:05:20.470Z,97464.20
2019-03-16T10:07:47.881Z,97466.21
2019-03-16T10:10:15.404Z,97470.73
2019-03-16T10:12:42.929Z,97461.42
2019-03-16T10:15:10.384Z,97461.14
2019-03-16T10:17:37.810Z,97460.72
2019-03-16T10:20:06.127Z,97459.00
2019-03-16T10:22:33.530Z,97454.98
2019-03-16T10:25:01.496Z,97446.52
2019-03-16T10:27:28.906Z,97441.38
2019-03-16T10:29:56.354Z,97445.00
2019-03-16T10:32:23.820Z,97434.79
2019-03-16T10:34:51.261Z,97429.31
2019-03-16T10:37:18.699Z,97425.80
2019-03-16T10:39:46.125Z,97418.09
2019-03-16T10:42:13.080Z,97410.25
2019-03-16T10:44:40.618Z,97409.02
2019-03-16T10:47:08.082Z,97408.41
2019-03-16T10:49:35.543Z,97407.96
2019-03-16T10:52:02.931Z,97411.53
2019-03-16T10:54:30.343Z,97404.95
2019-03-16T10:56:57.766Z,97394.33
2019-03-16T10:59:25.177Z,97381.27
2019-03-16T11:01:52.574Z,97378.98
2019-03-16T11:04:20.646Z,97377.98
2019-03-16T11:06:47.809Z,97376.34
2019-03-16T11:09:15.214Z,97356.31
2019-03-16T11:11:42.164Z,97361.59
2019-03-16T11:14:09.780Z,97361.38
2019-03-16T11:16:37.643Z,97354.87
2019-03-16T11:19:04.690Z,97356.80
2019-03-16T11:21:32.094Z,97354.92
2019-03-16T11:24:00.072Z,97340.66
2019-03-16T11:26:28.433Z,97341.19
2019-03-16T11:29:04.513Z,97336.75
2019-03-16T11:31:24.237Z,97345.42
2019-03-16T11:33:51.647Z,97332.20
2019-03-16T11:36:19.083Z,97326.77
2019-03-16T11:38:46.498Z,97320.89
2019-03-16T11:41:13.918Z,97319.15
2019-03-16T11:43:41.514Z,97304.95
2019-03-16T11:46:08.944Z,97304.83
2019-03-16T11:48:36.564Z,97296.52
2019-03-16T11:51:04.045Z,97282.26
2019-03-16T11:53:31.450Z,97282.95
2019-03-16T11:55:58.845Z,97277.55
2019-03-16T11:58:26.275Z,97274.71
2019-03-16T12:00:53.680Z,97281.28
2019-03-16T12:03:21.127Z,97274.16
2019-03-16T12:05:48.568Z,97271.56
2019-03-16T12:08:15.985Z,97277.05
2019-03-16T12:10:43.410Z,97269.48
2019-03-16T12:13:17.198Z,97259.28
2019-03-16T12:15:38.422Z,97252.86
2019-03-16T12:18:05.855Z,97256.17
2019-03-16T12:20:33.271Z,97256.37
2019-03-16T12:23:00.656Z,97242.55
2019-03-16T12:25:28.103Z,97236.71
2019-03-16T12:27:55.561Z,97236.13
2019-03-16T12:30:23.037Z,97227.81
2019-03-16T12:32:50.514Z,97232.58
2019-03-16T12:35:17.919Z,97225.97
2019-03-16T12:37:45.337Z,97227.47
2019-03-16T12:40:12.767Z,97218.51
2019-03-16T12:42:40.183Z,97213.50
2019-03-16T12:45:20.621Z,97199.02
2019-03-16T12:47:45.498Z,97203.25
2019-03-16T12:50:13.210Z,97193.52
2019-03-16T12:52:40.612Z,97190.30
2019-03-16T12:55:11.696Z,97187.13
2019-03-16T12:57:39.086Z,97182.91
2019-03-16T13:00:17.909Z,97175.13
2019-03-16T13:02:45.365Z,97175.61
2019-03-16T13:05:12.777Z,97170.09
2019-03-16T13:07:40.379Z,97161.19
2019-03-16T13:10:16.746Z,97161.12
2019-03-16T13:12:44.332Z,97159.23
2019-03-16T13:15:12.196Z,97163.13
2019-03-16T13:17:39.577Z,97159.52
2019-03-16T13:20:16.494Z,97157.05
2019-03-16T13:22:43.996Z,97148.42
2019-03-16T13:25:11.509Z,97151.64
2019-03-16T13:27:38.947Z,97136.77
2019-03-16T13:30:12.546Z,97142.31
2019-03-16T13:32:39.948Z,97143.43
2019-03-16T13:35:07.349Z,97135.11
2019-03-16T13:37:34.778Z,97128.75
2019-03-16T13:40:02.210Z,97128.81
2019-03-16T13:42:29.810Z,97127.73
2019-03-16T13:44:57.307Z,97118.04
2019-03-16T13:47:24.765Z,97107.35
2019-03-16T13:49:52.227Z,97112.77
2019-03-16T13:52:19.864Z,97099.59
2019-03-16T13:54:47.323Z,97107.03
2019-03-16T13:57:14.735Z,97093.38
2019-03-16T13:59:42.176Z,97086.78
2019-03-16T14:02:09.625Z,97091.51
2019-03-16T14:04:37.132Z,97091.34
2019-03-16T14:07:04.658Z,97091.36
2019-03-16T14:09:32.897Z,97081.25
2019-03-16T14:12:00.311Z,97073.95
2019-03-16T14:14:27.867Z,97070.03
2019-03-16T14:16:55.302Z,97073.59
2019-03-16T14:19:22.846Z,97054.39
2019-03-16T14:21:49.818Z,97059.69
2019-03-16T14:24:16.754Z,97054.61
2019-03-16T14:26:43.723Z,97045.84
2019-03-16T14:29:11.143Z,97048.65
2019-03-16T14:31:38.245Z,97046.80
2019-03-16T14:34:05.487Z,97043.45
2019-03-16T14:36:32.457Z,97040.77
2019-03-16T14:38:59.437Z,97034.00
2019-03-16T14:41:26.676Z,97036.64
2019-03-16T14:43:53.831Z,97026.64
2019-03-16T14:46:20.782Z,97024.20
2019-03-16T14:48:47.758Z,97024.38
2019-03-16T14:51:14.706Z,97025.13
2019-03-16T14:53:41.687Z,97014.18
2019-03-16T14:56:08.623Z,97008.30
2019-03-16T14:58:35.609Z,97004.34
2019-03-16T15:01:02.583Z,97011.16
2019-03-16T15:03:29.531Z,97005.76
2019-03-16T15:05:56.487Z,97014.41
2019-03-16T15:08:23.698Z,97006.06
2019-03-16T15:10:50.683Z,97001.76
2019-03-16T15:13:17.632Z,96997.95
2019-03-16T15:15:44.703Z,97008.63
2019-03-16T15:18:11.683Z,97001.18
2019-03-16T15:20:38.631Z,96995.54
2019-03-16T15:23:05.759Z,96980.77
2019-03-16T15:25:32.698Z,96980.41
2019-03-16T15:27:59.706Z,96981.60
2019-03-16T15:30:26.655Z,96983.83
2019-03-16T15:32:53.602Z,96986.67
2019-03-16T15:35:20.957Z,96976.77
2019-03-16T15:37:47.908Z,96980.50
2019-03-16T15:40:15.321Z,96965.72
2019-03-16T15:42:42.725Z,96963.61
2019-03-16T15:45:25.323Z,96961.52
2019-03-16T15:47:52.335Z,96961.77
2019-03-16T15:50:19.285Z,96958.89
2019-03-16T15:52:46.732Z,96953.41
2019-03-16T15:55:14.126Z,96961.72
2019-03-16T15:57:42.763Z,96962.19
2019-03-16T16:00:09.884Z,96955.02
2019-03-16T16:02:37.303Z,96961.06
2019-03-16T16:05:04.841Z,96961.22
2019-03-16T16:07:35.217Z,96960.34
2019-03-16T16:09:59.897Z,96961.43
2019-03-16T16:12:27.364Z,96967.55
2019-03-16T16:14:54.795Z,96958.80
2019-03-16T16:17:22.187Z,96961.89
2019-03-16T16:19:49.803Z,96953.92
2019-03-16T16:22:17.349Z,96966.27
2019-03-16T16:24:44.733Z,96957.67
2019-03-16T16:27:12.153Z,96948.46
2019-03-16T16:29:39.654Z,96947.11
2019-03-16T16:32:07.093Z,96942.84
2019-03-16T16:34:34.551Z,96945.56
2019-03-16T16:37:02.023Z,96946.69
2019-03-16T16:39:29.429Z,96944.30
2019-03-16T16:41:56.827Z,96938.41
2019-03-16T16:44:24.370Z,96928.73
2019-03-16T16:46:51.761Z,96927.82
2019-03-16T16:49:19.248Z,96924.97
2019-03-16T16:51:46.662Z,96929.47
2019-03-16T16:54:14.086Z,96925.62
2019-03-16T16:56:41.568Z,96923.41
2019-03-16T16:59:08.965Z,96922.16
2019-03-16T17:01:36.453Z,96928.70
2019-03-16T17:04:04.054Z,96925.27
2019-03-16T17:06:31.311Z,96929.94
2019-03-16T17:08:58.897Z,96925.59
2019-03-16T17:11:26.562Z,96928.70
2019-03-16T17:13:54.060Z,96917.14
2019-03-16T17:16:21.558Z,96924.40
2019-03-16T17:18:49.013Z,96931.19
2019-03-16T17:21:16.533Z,96924.14
2019-03-16T17:23:43.932Z,96925.05
2019-03-16T17:26:11.378Z,96919.62
2019-03-16T17:28:39.859Z,96926.86
2019-03-16T17:31:07.404Z,96925.16
2019-03-16T17:33:35.154Z,96926.81
2019-03-16T17:36:02.610Z,96918.61
2019-03-16T17:38:30.011Z,96918.62
2019-03-16T17:40:57.672Z,96922.39
2019-03-16T17:43:25.130Z,96917.28
2019-03-16T17:45:52.522Z,96918.59
2019-03-16T17:48:20.005Z,96916.91
2019-03-16T17:50:47.510Z,96918.34
2019-03-16T17:53:14.924Z,96910.88
2019-03-16T17:55:42.399Z,96911.45
2019-03-16T17:58:09.799Z,96909.00
2019-03-16T18:00:37.231Z,96900.86
2019-03-16T18:03:04.841Z,96909.78
2019-03-16T18:05:32.233Z,96905.94
2019-03-16T18:07:59.673Z,96910.28
2019-03-16T18:10:27.077Z,96918.68
2019-03-16T18:12:54.603Z,96914.91
2019-03-16T18:15:22.029Z,96917.34
2019-03-16T18:17:49.436Z,96910.44
2019-03-16T18:20:17.899Z,96905.95
2019-03-16T18:22:44.411Z,96908.46
2019-03-16T18:25:11.990Z,96905.64
2019-03-16T18:27:39.402Z,96911.80
2019-03-16T18:30:09.556Z,96904.26
2019-03-16T18:32:37.000Z,96905.05
2019-03-16T18:35:04.408Z,96897.02
2019-03-16T18:37:31.828Z,96896.52
2019-03-16T18:39:59.328Z,96886.03
2019-03-16T18:42:27.905Z,96878.53
2019-03-16T18:44:54.158Z,96880.27
2019-03-16T18:47:21.638Z,96880.91
2019-03-16T18:49:49.930Z,96875.20
2019-03-16T18:52:17.340Z,96880.77
2019-03-16T18:54:44.946Z,96877.20
2019-03-16T18:57:12.349Z,96875.98
2019-03-16T18:59:39.853Z,96879.22
2019-03-16T19:02:19.898Z,96888.56
2019-03-16T19:04:34.897Z,96882.70
2019-03-16T19:07:02.323Z,96882.81
2019-03-16T19:09:29.825Z,96874.02
2019-03-16T19:11:57.231Z,96877.46
2019-03-16T19:14:24.643Z,96877.17
2019-03-16T19:16:52.104Z,96880.20
2019-03-16T19:19:19.512Z,96886.63
2019-03-16T19:21:46.922Z,96880.64
2019-03-16T19:24:14.337Z,96876.84
2019-03-16T19:26:41.760Z,96880.20
2019-03-16T19:29:09.256Z,96881.95
2019-03-16T19:31:36.760Z,96882.33
2019-03-16T19:34:04.355Z,96875.18
2019-03-16T19:36:32.867Z,96876.27
2019-03-16T19:39:00.303Z,96869.91
2019-03-16T19:41:27.926Z,96868.53
2019-03-16T19:43:55.407Z,96876.13
2019-03-16T19:46:22.856Z,96874.03
2019-03-16T19:48:50.416Z,96869.95
2019-03-16T19:51:17.982Z,96870.31
2019-03-16T19:53:45.437Z,96865.33
2019-03-16T19:56:12.873Z,96863.67
2019-03-16T19:58:40.269Z,96866.09
2019-03-16T20:01:07.811Z,96864.73
2019-03-16T20:03:35.283Z,96866.00
2019-03-16T20:06:02.669Z,96860.19
2019-03-16T20:08:30.129Z,96862.19
2019-03-16T20:11:06.507Z,96864.19
2019-03-16T20:13:25.200Z,96865.55
2019-03-16T20:15:52.727Z,96862.33
2019-03-16T20:18:20.143Z,96863.02
2019-03-16T20:20:47.682Z,96870.89
2019-03-16T20:23:15.071Z,96856.62
2019-03-16T20:25:42.484Z,96859.07
2019-03-16T20:28:09.945Z,96856.35
2019-03-16T20:30:37.373Z,96867.05
2019-03-16T20:33:04.979Z,96856.99
2019-03-16T20:35:32.374Z,96858.08
2019-03-16T20:37:59.890Z,96854.31
2019-03-16T20:40:27.289Z,96855.63
2019-03-16T20:42:54.698Z,96854.02
2019-03-16T20:45:22.255Z,96856.88
2019-03-16T20:47:49.602Z,96859.52
2019-03-16T20:50:17.022Z,96861.69
2019-03-16T20:52:44.429Z,96859.84
2019-03-16T20:55:12.011Z,96850.39
2019-03-16T20:57:40.306Z,96848.89
2019-03-16T21:00:11.412Z,96845.53
2019-03-16T21:02:45.122Z,96839.06
2019-03-16T21:05:13.545Z,96846.80
2019-03-16T21:07:41.060Z,96843.13
2019-03-16T21:10:10.347Z,96836.17
2019-03-16T21:12:37.814Z,96838.79
2019-03-16T21:15:10.001Z,96835.19
2019-03-16T21:17:38.190Z,96831.08
2019-03-16T21:20:06.922Z,96830.07
2019-03-16T21:22:38.948Z,96832.23
2019-03-16T21:25:03.315Z,96834.56
2019-03-16T21:27:34.970Z,96827.44
2019-03-16T21:30:03.391Z,96837.48
2019-03-16T21:32:31.639Z,96829.48
2019-03-16T21:34:59.992Z,96833.55
2019-03-16T21:37:27.699Z,96822.61
2019-03-16T21:39:55.299Z,96810.76
2019-03-16T21:42:24.460Z,96810.15
2019-03-16T21:45:05.222Z,96806.62
2019-03-16T21:47:33.325Z,96807.16
2019-03-16T21:50:01.494Z,96804.67
2019-03-16T21:52:29.289Z,96806.46
2019-03-16T21:54:56.840Z,96801.27
2019-03-16T21:57:24.380Z,96805.97
2019-03-16T21:59:51.681Z,96806.92
2019-03-16T22:02:20.327Z,96811.11
2019-03-16T22:04:47.807Z,96812.48
2019-03-16T22:07:15.211Z,96813.39
2019-03-16T22:09:42.657Z,96803.58
2019-03-16T22:12:10.099Z,96797.13
2019-03-16T22:14:37.556Z,96795.22
2019-03-16T22:17:05.035Z,96799.41
2019-03-16T22:19:32.439Z,96795.16
2019-03-16T22:21:59.843Z,96800.19
2019-03-16T22:24:27.269Z,96795.33
2019-03-16T22:26:54.854Z,96793.92
2019-03-16T22:29:22.378Z,96794.91
2019-03-16T22:31:50.595Z,96799.77
2019-03-16T22:34:18.030Z,96798.33
2019-03-16T22:36:45.439Z,96798.47
2019-03-16T22:39:12.905Z,96795.04
2019-03-16T22:41:40.319Z,96791.20
2019-03-16T22:44:07.883Z,96794.01
2019-03-16T22:46:35.380Z,96792.94
2019-03-16T22:49:02.842Z,96783.87
2019-03-16T22:51:30.379Z,96788.64
2019-03-16T22:53:57.819Z,96785.50
2019-03-16T22:56:25.429Z,96787.25
2019-03-16T22:58:53.088Z,96777.20
2019-03-16T23:01:20.505Z,96769.87
2019-03-16T23:03:47.962Z,96761.78
2019-03-16T23:06:15.417Z,96761.95
2019-03-16T23:08:43.342Z,96767.20
2019-03-16T23:11:10.979Z,96767.96
2019-03-16T23:13:38.369Z,96767.55
2019-03-16T23:16:05.834Z,96771.42
2019-03-16T23:18:33.304Z,96763.01
2019-03-16T23:21:00.733Z,96763.59
2019-03-16T23:23:28.505Z,96761.53
2019-03-16T23:25:55.897Z,96764.13
2019-03-16T23:28:23.409Z,96764.74
2019-03-16T23:30:50.850Z,96762.03
2019-03-16T23:33:18.246Z,96760.42
2019-03-16T23:35:45.708Z,96753.53
2019-03-16T23:38:13.202Z,96753.19
2019-03-16T23:40:40.730Z,96748.56
2019-03-16T23:43:08.126Z,96744.02
2019-03-16T23:45:35.515Z,96750.66
2019-03-16T23:48:02.987Z,96747.94
2019-03-16T23:50:30.509Z,96735.14
2019-03-16T23:52:57.900Z,96743.37
2019-03-16T23:55:25.312Z,96742.77
2019-03-16T23:57:52.734Z,96738.14
